createdAt,value
2022-08-03T00:01:30.392Z,1.70
2022-08-03T00:03:57.263Z,1.92
2022-08-03T00:06:24.095Z,1.60
2022-08-03T00:08:50.984Z,1.77
2022-08-03T00:11:18.110Z,1.90
2022-08-03T00:13:44.948Z,1.98
2022-08-03T00:16:12.173Z,1.80
2022-08-03T00:18:39.212Z,2.00
2022-08-03T00:21:05.999Z,1.60
2022-08-03T00:23:52.565Z,1.80
2022-08-03T00:26:20.907Z,2.20
2022-08-03T00:28:48.424Z,2.17
2022-08-03T00:31:15.788Z,2.17
2022-08-03T00:33:57.911Z,2.00
2022-08-03T00:36:27.290Z,1.95
2022-08-03T00:38:54.363Z,1.85
2022-08-03T00:41:21.040Z,2.03
2022-08-03T00:43:47.987Z,1.80
2022-08-03T00:46:20.542Z,2.10
2022-08-03T00:48:51.503Z,2.10
2022-08-03T00:51:19.481Z,2.28
2022-08-03T00:53:46.264Z,2.22
2022-08-03T00:56:15.006Z,2.38
2022-08-03T00:58:41.861Z,2.30
2022-08-03T01:01:08.733Z,2.25
2022-08-03T01:03:35.699Z,2.00
2022-08-03T01:06:34.274Z,2.22
2022-08-03T01:09:12.556Z,1.90
2022-08-03T01:12:00.211Z,1.90
2022-08-03T01:14:39.187Z,2.15
2022-08-03T01:17:31.525Z,2.13
2022-08-03T01:20:07.255Z,2.30
2022-08-03T01:23:11.770Z,2.30
2022-08-03T01:25:41.241Z,2.10
2022-08-03T01:28:55.671Z,2.53
2022-08-03T01:31:26.492Z,2.80
2022-08-03T01:34:00.527Z,2.75
2022-08-03T01:36:32.363Z,2.80
2022-08-03T01:39:01.862Z,2.50
2022-08-03T01:41:39.360Z,2.17
2022-08-03T01:44:29.942Z,2.58
2022-08-03T01:47:01.730Z,2.50
2022-08-03T01:49:30.941Z,2.50
2022-08-03T01:52:04.455Z,2.03
2022-08-03T01:54:36.361Z,2.35
2022-08-03T01:57:03.828Z,2.20
2022-08-03T01:59:32.946Z,2.30
2022-08-03T02:02:28.074Z,2.30
2022-08-03T02:04:48.124Z,2.30
2022-08-03T02:07:15.636Z,2.22
2022-08-03T02:09:45.055Z,2.28
2022-08-03T02:12:12.351Z,2.23
2022-08-03T02:14:41.064Z,2.67
2022-08-03T02:17:08.669Z,2.83
2022-08-03T02:19:35.986Z,3.08
2022-08-03T02:22:04.395Z,2.67
2022-08-03T02:24:31.979Z,2.70
2022-08-03T02:26:59.567Z,2.83
2022-08-03T02:29:40.223Z,2.38
2022-08-03T02:32:12.756Z,2.92
2022-08-03T02:34:41.115Z,2.60
2022-08-03T02:37:08.638Z,2.42
2022-08-03T02:39:35.787Z,2.70
2022-08-03T02:42:03.178Z,2.60
2022-08-03T02:44:34.769Z,2.17
2022-08-03T02:47:04.209Z,2.15
2022-08-03T02:49:50.776Z,2.45
2022-08-03T02:52:20.360Z,2.50
2022-08-03T02:54:49.451Z,2.50
2022-08-03T02:57:17.058Z,2.30
2022-08-03T02:59:44.889Z,2.33
2022-08-03T03:02:12.369Z,2.45
2022-08-03T03:04:45.085Z,2.20
2022-08-03T03:07:26.904Z,2.22
2022-08-03T03:09:56.695Z,2.60
2022-08-03T03:12:24.127Z,2.40
2022-08-03T03:14:51.051Z,2.40
2022-08-03T03:17:18.599Z,2.63
2022-08-03T03:19:45.788Z,2.35
2022-08-03T03:22:13.297Z,2.50
2022-08-03T03:24:40.937Z,2.60
2022-08-03T03:27:08.336Z,3.28
2022-08-03T03:29:39.250Z,3.30
2022-08-03T03:32:09.131Z,2.95
2022-08-03T03:34:36.668Z,3.35
2022-08-03T03:37:03.655Z,3.25
2022-08-03T03:39:30.941Z,2.95
2022-08-03T03:41:58.007Z,3.75
2022-08-03T03:44:28.587Z,2.78
2022-08-03T03:46:58.668Z,3.03
2022-08-03T03:49:26.492Z,2.83
2022-08-03T03:51:54.845Z,2.30
2022-08-03T03:54:21.561Z,2.70
2022-08-03T03:56:48.584Z,2.65
2022-08-03T03:59:15.432Z,3.55
2022-08-03T04:01:43.872Z,3.08
2022-08-03T04:04:29.290Z,3.00
2022-08-03T04:07:14.825Z,2.65
2022-08-03T04:10:08.787Z,3.08
2022-08-03T04:12:50.305Z,2.70
2022-08-03T04:15:20.219Z,2.75
2022-08-03T04:17:47.139Z,2.67
2022-08-03T04:20:14.162Z,2.85
2022-08-03T04:22:42.079Z,2.78
2022-08-03T04:25:10.553Z,2.60
2022-08-03T04:27:38.807Z,2.70
2022-08-03T04:30:06.523Z,2.40
2022-08-03T04:32:34.070Z,2.45
2022-08-03T04:35:00.936Z,2.42
2022-08-03T04:37:35.353Z,2.50
2022-08-03T04:40:03.658Z,2.20
2022-08-03T04:42:33.417Z,2.80
2022-08-03T04:45:01.663Z,2.75
2022-08-03T04:47:31.212Z,3.10
2022-08-03T04:49:58.265Z,2.58
2022-08-03T04:52:25.303Z,2.17
2022-08-03T04:54:52.817Z,2.10
2022-08-03T04:57:22.512Z,2.15
2022-08-03T04:59:59.594Z,2.08
2022-08-03T05:02:29.643Z,2.03
2022-08-03T05:04:56.311Z,2.30
2022-08-03T05:07:25.084Z,2.30
2022-08-03T05:09:57.599Z,2.33
2022-08-03T05:12:32.905Z,1.92
2022-08-03T05:17:26.755Z,1.90
2022-08-03T05:19:53.600Z,2.15
2022-08-03T05:22:21.183Z,2.00
2022-08-03T05:24:48.135Z,2.22
2022-08-03T05:27:19.263Z,2.10
2022-08-03T05:29:47.011Z,1.80
2022-08-03T05:32:13.829Z,1.88
2022-08-03T05:34:41.664Z,1.73
2022-08-03T05:37:08.407Z,2.13
2022-08-03T05:39:36.038Z,1.90
2022-08-03T05:42:02.804Z,2.00
2022-08-03T05:44:29.454Z,2.30
2022-08-03T05:46:57.999Z,1.83
2022-08-03T05:49:24.678Z,1.88
2022-08-03T05:51:59.783Z,2.03
2022-08-03T05:54:55.342Z,2.20
2022-08-03T05:57:23.260Z,2.20
2022-08-03T05:59:57.721Z,2.20
2022-08-03T06:02:26.838Z,2.05
2022-08-03T06:04:53.760Z,1.77
2022-08-03T06:07:20.603Z,1.95
2022-08-03T06:10:35.193Z,2.22
2022-08-03T06:12:37.336Z,1.58
2022-08-03T06:15:04.983Z,1.80
2022-08-03T06:17:37.784Z,1.80
2022-08-03T06:20:05.898Z,1.70
2022-08-03T06:22:32.682Z,1.63
2022-08-03T06:25:04.009Z,2.10
2022-08-03T06:27:37.319Z,1.73
2022-08-03T06:30:05.466Z,1.70
2022-08-03T06:32:32.390Z,1.80
2022-08-03T06:34:59.581Z,1.90
2022-08-03T06:37:27.092Z,1.88
2022-08-03T06:39:54.179Z,1.90
2022-08-03T06:42:21.172Z,1.70
2022-08-03T06:44:49.759Z,1.48
2022-08-03T06:47:16.491Z,1.67
2022-08-03T06:49:43.345Z,1.42
2022-08-03T06:52:10.099Z,1.40
2022-08-03T06:54:36.862Z,1.50
2022-08-03T06:57:04.078Z,1.40
2022-08-03T07:00:09.187Z,1.40
2022-08-03T07:02:19.739Z,1.70
2022-08-03T07:04:49.166Z,1.80
2022-08-03T07:07:16.025Z,1.88
2022-08-03T07:09:42.687Z,1.60
2022-08-03T07:12:24.444Z,1.60
2022-08-03T07:14:51.081Z,1.95
2022-08-03T07:17:17.820Z,1.63
2022-08-03T07:19:44.644Z,1.88
2022-08-03T07:22:11.444Z,1.65
2022-08-03T07:24:38.520Z,1.70
2022-08-03T07:27:05.270Z,1.77
2022-08-03T07:29:34.618Z,1.58
2022-08-03T07:32:02.434Z,1.67
2022-08-03T07:34:29.351Z,1.80
2022-08-03T07:36:56.330Z,1.60
2022-08-03T07:39:23.177Z,1.88
2022-08-03T07:41:52.970Z,1.83
2022-08-03T07:44:19.715Z,1.70
2022-08-03T07:46:46.598Z,1.40
2022-08-03T07:49:13.976Z,1.63
2022-08-03T07:51:41.375Z,1.50
2022-08-03T07:54:10.154Z,1.52
2022-08-03T07:56:37.661Z,1.40
2022-08-03T07:59:04.320Z,1.67
2022-08-03T08:01:32.696Z,1.40
2022-08-03T08:03:59.507Z,1.42
2022-08-03T08:06:26.229Z,1.30
2022-08-03T08:08:53.999Z,1.23
2022-08-03T08:11:22.203Z,1.63
2022-08-03T08:13:49.014Z,1.50
2022-08-03T08:16:15.675Z,1.48
2022-08-03T08:18:42.411Z,1.30
2022-08-03T08:21:10.240Z,1.50
2022-08-03T08:23:42.109Z,1.30
2022-08-03T08:26:10.950Z,1.70
2022-08-03T08:28:37.676Z,1.50
2022-08-03T08:31:04.967Z,1.50
2022-08-03T08:34:01.045Z,1.60
2022-08-03T08:36:19.129Z,1.90
2022-08-03T08:38:46.019Z,1.60
2022-08-03T08:41:13.822Z,1.45
2022-08-03T08:43:41.482Z,1.40
2022-08-03T08:46:12.096Z,1.80
2022-08-03T08:48:41.840Z,1.80
2022-08-03T08:53:37.308Z,1.80
2022-08-03T08:56:06.411Z,1.80
2022-08-03T08:58:37.007Z,1.63
2022-08-03T09:01:04.580Z,1.48
2022-08-03T09:03:34.676Z,1.48
2022-08-03T09:06:02.358Z,1.70
2022-08-03T09:08:33.036Z,1.58
2022-08-03T09:11:00.027Z,1.67
2022-08-03T09:13:26.915Z,1.52
2022-08-03T09:16:13.170Z,1.50
2022-08-03T09:18:41.127Z,1.60
2022-08-03T09:21:34.493Z,1.52
2022-08-03T09:24:05.355Z,1.80
2022-08-03T09:26:37.231Z,1.42
2022-08-03T09:29:15.345Z,1.52
2022-08-03T09:31:44.886Z,1.70
2022-08-03T09:34:14.187Z,1.70
2022-08-03T09:36:48.658Z,1.57
2022-08-03T09:39:41.970Z,1.67
2022-08-03T09:42:10.631Z,1.50
2022-08-03T09:44:39.082Z,1.70
2022-08-03T09:47:10.108Z,1.45
2022-08-03T09:49:37.924Z,1.45
2022-08-03T09:52:31.642Z,1.42
2022-08-03T09:56:30.958Z,1.40
2022-08-03T09:58:07.003Z,1.40
2022-08-03T10:00:53.846Z,1.40
2022-08-03T10:03:21.614Z,1.42
2022-08-03T10:05:48.260Z,1.30
2022-08-03T10:08:16.166Z,1.50
2022-08-03T10:10:44.558Z,1.55
2022-08-03T10:13:13.288Z,1.40
2022-08-03T10:16:23.179Z,1.35
2022-08-03T10:18:27.365Z,1.00
2022-08-03T10:20:57.969Z,0.90
2022-08-03T10:23:25.579Z,1.25
2022-08-03T10:25:55.291Z,1.33
2022-08-03T10:30:51.978Z,1.10
2022-08-03T10:33:52.044Z,1.05
2022-08-03T10:36:12.119Z,1.30
2022-08-03T10:38:46.606Z,1.15
2022-08-03T10:41:16.232Z,1.10
2022-08-03T10:43:49.161Z,1.00
2022-08-03T10:46:17.730Z,1.38
2022-08-03T10:48:45.662Z,1.20
2022-08-03T10:51:13.328Z,0.90
2022-08-03T10:53:44.160Z,1.10
2022-08-03T10:56:52.612Z,1.00
2022-08-03T10:59:45.981Z,1.10
2022-08-03T11:02:14.180Z,1.30
2022-08-03T11:04:41.731Z,1.10
2022-08-03T11:07:18.773Z,1.38
2022-08-03T11:09:51.566Z,1.05
2022-08-03T11:12:31.297Z,1.00
2022-08-03T11:15:05.861Z,1.05
2022-08-03T11:17:33.911Z,1.00
2022-08-03T11:20:13.842Z,0.80
2022-08-03T11:22:51.480Z,1.10
2022-08-03T11:25:54.054Z,0.95
2022-08-03T11:28:30.827Z,0.90
2022-08-03T11:31:48.149Z,1.08
2022-08-03T11:34:12.402Z,1.08
2022-08-03T11:37:16.760Z,0.98
2022-08-03T11:39:45.861Z,0.93
2022-08-03T11:42:25.512Z,1.00
2022-08-03T11:47:29.621Z,1.17
2022-08-03T11:50:00.595Z,1.02
2022-08-03T11:52:28.972Z,1.20
2022-08-03T11:54:57.013Z,1.10
2022-08-03T11:59:11.241Z,1.27
2022-08-03T12:00:22.739Z,1.10
2022-08-03T12:03:07.806Z,1.17
2022-08-03T12:05:36.465Z,1.10
2022-08-03T12:08:06.756Z,1.00
2022-08-03T12:10:34.348Z,0.90
2022-08-03T12:13:02.093Z,0.90
2022-08-03T12:15:31.468Z,1.10
2022-08-03T12:17:58.394Z,1.20
2022-08-03T12:20:35.078Z,1.13
2022-08-03T12:23:04.608Z,0.90
2022-08-03T12:25:38.523Z,1.00
2022-08-03T12:28:36.972Z,0.80
2022-08-03T12:31:09.308Z,0.90
2022-08-03T12:34:15.308Z,0.90
2022-08-03T12:36:52.611Z,1.00
2022-08-03T12:39:23.514Z,0.90
2022-08-03T12:41:53.799Z,0.90
2022-08-03T12:44:34.735Z,0.93
2022-08-03T12:47:02.855Z,1.10
2022-08-03T12:49:44.943Z,1.10
2022-08-03T12:52:11.687Z,1.02
2022-08-03T12:54:38.833Z,1.08
2022-08-03T12:57:15.638Z,0.95
2022-08-03T12:59:53.306Z,1.00
2022-08-03T13:02:24.145Z,1.05
2022-08-03T13:04:52.531Z,1.00
2022-08-03T13:07:20.838Z,0.80
2022-08-03T13:09:54.569Z,0.88
2022-08-03T13:12:26.906Z,0.80
2022-08-03T13:14:56.852Z,1.00
2022-08-03T13:17:24.248Z,1.05
2022-08-03T13:19:51.508Z,1.00
2022-08-03T13:22:28.888Z,1.00
2022-08-03T13:24:57.428Z,1.05
2022-08-03T13:28:12.315Z,1.00
2022-08-03T13:30:13.264Z,1.20
2022-08-03T13:32:40.315Z,1.25
2022-08-03T13:35:08.669Z,1.30
2022-08-03T13:37:36.187Z,0.93
2022-08-03T13:40:06.072Z,1.10
2022-08-03T13:42:34.438Z,1.20
2022-08-03T13:45:02.028Z,1.10
2022-08-03T13:47:29.131Z,1.30
2022-08-03T13:50:00.967Z,1.10
2022-08-03T13:52:34.308Z,1.40
2022-08-03T13:55:02.042Z,1.10
2022-08-03T13:58:03.562Z,1.30
2022-08-03T14:00:27.987Z,1.00
2022-08-03T14:03:04.024Z,1.15
2022-08-03T14:05:34.303Z,1.20
2022-08-03T14:08:04.232Z,1.20
2022-08-03T14:10:39.145Z,1.35
2022-08-03T14:13:05.938Z,1.30
2022-08-03T14:15:37.454Z,1.20
2022-08-03T14:18:15.765Z,1.33
2022-08-03T14:20:56.370Z,1.20
2022-08-03T14:23:24.036Z,1.35
2022-08-03T14:25:52.580Z,1.30
2022-08-03T14:28:21.035Z,1.40
2022-08-03T14:30:48.547Z,1.15
2022-08-03T14:33:15.699Z,1.33
2022-08-03T14:35:42.583Z,1.35
2022-08-03T14:38:10.112Z,1.23
2022-08-03T14:40:36.954Z,1.08
2022-08-03T14:43:04.505Z,1.50
2022-08-03T14:45:31.715Z,1.35
2022-08-03T14:50:28.837Z,1.30
2022-08-03T14:50:51.371Z,1.20
2022-08-03T14:53:19.640Z,1.33
2022-08-03T14:55:49.950Z,1.35
2022-08-03T14:58:20.744Z,1.13
2022-08-03T15:00:49.920Z,1.30
2022-08-03T15:03:20.418Z,1.17
2022-08-03T15:05:47.347Z,1.27
2022-08-03T15:08:14.116Z,1.35
2022-08-03T15:10:44.907Z,1.30
2022-08-03T15:13:13.210Z,1.40
2022-08-03T15:15:40.531Z,1.30
2022-08-03T15:18:07.656Z,1.30
2022-08-03T15:20:49.901Z,1.60
2022-08-03T15:23:17.322Z,1.33
2022-08-03T15:26:28.246Z,1.30
2022-08-03T15:28:32.545Z,1.15
2022-08-03T15:31:00.103Z,1.52
2022-08-03T15:33:26.847Z,1.55
2022-08-03T15:35:53.656Z,1.20
2022-08-03T15:38:25.804Z,1.30
2022-08-03T15:40:55.604Z,1.20
2022-08-03T15:43:23.187Z,1.30
2022-08-03T15:46:12.860Z,6.38
2022-08-03T15:48:36.861Z,10.25
2022-08-03T15:51:04.911Z,13.45
2022-08-03T15:53:31.637Z,1.40
2022-08-03T15:55:58.467Z,1.25
2022-08-03T15:59:10.685Z,1.30
2022-08-03T16:01:19.850Z,1.40
2022-08-03T16:03:47.024Z,1.40
2022-08-03T16:06:13.996Z,1.25
2022-08-03T16:08:40.720Z,1.45
2022-08-03T16:11:07.443Z,1.35
2022-08-03T16:14:13.820Z,1.17
2022-08-03T16:16:20.810Z,1.13
2022-08-03T16:18:47.484Z,1.40
2022-08-03T16:21:18.505Z,1.17
2022-08-03T16:23:47.344Z,1.25
2022-08-03T16:26:14.320Z,1.30
2022-08-03T16:28:41.176Z,1.30
2022-08-03T16:31:09.000Z,1.20
2022-08-03T16:33:35.805Z,1.15
2022-08-03T16:36:02.703Z,1.10
2022-08-03T16:38:29.571Z,1.35
2022-08-03T16:40:56.227Z,1.40
2022-08-03T16:43:22.992Z,1.02
2022-08-03T16:45:49.871Z,1.50
2022-08-03T16:48:17.242Z,1.45
2022-08-03T16:50:44.549Z,1.30
2022-08-03T16:53:15.500Z,1.23
2022-08-03T16:55:53.764Z,1.42
2022-08-03T16:58:34.549Z,1.20
2022-08-03T17:01:22.246Z,1.10
2022-08-03T17:04:02.377Z,1.20
2022-08-03T17:06:35.509Z,1.23
2022-08-03T17:09:08.409Z,1.30
2022-08-03T17:11:37.622Z,1.30
2022-08-03T17:14:09.203Z,1.20
2022-08-03T17:16:38.448Z,1.20
2022-08-03T17:19:07.131Z,1.10
2022-08-03T17:21:39.773Z,1.70
2022-08-03T17:24:12.083Z,1.27
2022-08-03T17:26:46.053Z,1.13
2022-08-03T17:29:30.074Z,1.15
2022-08-03T17:31:57.023Z,1.25
2022-08-03T17:34:26.361Z,1.17
2022-08-03T17:37:27.127Z,1.35
2022-08-03T17:39:58.145Z,1.20
2022-08-03T17:42:31.162Z,1.20
2022-08-03T17:45:02.576Z,1.20
2022-08-03T17:47:42.405Z,1.17
2022-08-03T17:50:24.048Z,1.20
2022-08-03T17:53:15.630Z,1.20
2022-08-03T17:56:40.697Z,1.38
2022-08-03T17:59:51.643Z,1.33
2022-08-03T18:02:51.510Z,1.40
2022-08-03T18:05:21.771Z,1.17
2022-08-03T18:07:59.296Z,1.23
2022-08-03T18:13:02.245Z,1.40
2022-08-03T18:15:54.308Z,1.85
2022-08-03T18:18:32.349Z,7.60
2022-08-03T18:21:06.484Z,6.72
2022-08-03T18:23:37.793Z,3.83
2022-08-03T18:26:12.050Z,1.57
2022-08-03T18:28:39.576Z,1.67
2022-08-03T18:31:09.500Z,1.38
2022-08-03T18:34:18.564Z,1.40
2022-08-03T18:36:30.431Z,1.33
2022-08-03T18:39:00.208Z,1.20
2022-08-03T18:41:32.696Z,1.30
2022-08-03T18:44:08.694Z,1.23
2022-08-03T18:46:41.895Z,1.40
2022-08-03T18:49:31.924Z,1.33
2022-08-03T18:52:12.276Z,1.40
2022-08-03T18:55:21.559Z,1.30
2022-08-03T18:58:06.529Z,1.38
2022-08-03T19:00:54.362Z,1.50
2022-08-03T19:03:23.729Z,1.85
2022-08-03T19:06:02.455Z,1.30
2022-08-03T19:08:49.345Z,1.60
2022-08-03T19:12:11.126Z,1.55
2022-08-03T19:14:23.089Z,1.30
2022-08-03T19:17:05.858Z,1.48
2022-08-03T19:22:21.260Z,1.33
2022-08-03T19:24:50.155Z,1.40
2022-08-03T19:27:17.828Z,1.73
2022-08-03T19:29:58.876Z,1.70
2022-08-03T19:32:31.524Z,1.40
2022-08-03T19:35:00.138Z,1.27
2022-08-03T19:37:38.322Z,1.45
2022-08-03T19:42:41.374Z,1.73
2022-08-03T19:45:13.978Z,1.65
2022-08-03T19:47:46.654Z,1.38
2022-08-03T19:50:14.710Z,1.48
2022-08-03T19:52:43.846Z,1.55
2022-08-03T19:55:11.348Z,1.42
2022-08-03T19:57:41.260Z,1.65
2022-08-03T20:00:12.291Z,1.70
2022-08-03T20:02:41.406Z,1.55
2022-08-03T20:05:14.880Z,1.48
2022-08-03T20:07:47.918Z,1.35
2022-08-03T20:10:16.167Z,1.60
2022-08-03T20:12:44.046Z,1.80
2022-08-03T20:15:10.982Z,1.63
2022-08-03T20:17:56.903Z,1.88
2022-08-03T20:20:34.863Z,1.50
2022-08-03T20:23:06.792Z,1.45
2022-08-03T20:25:39.503Z,1.52
2022-08-03T20:28:29.341Z,1.60
2022-08-03T20:30:56.737Z,1.95
2022-08-03T20:33:30.684Z,2.03
2022-08-03T20:36:11.381Z,1.80
2022-08-03T20:38:43.679Z,2.15
2022-08-03T20:41:14.094Z,1.90
2022-08-03T20:43:41.646Z,1.98
2022-08-03T20:46:29.457Z,1.95
2022-08-03T20:48:58.969Z,1.60
2022-08-03T20:51:49.025Z,1.70
2022-08-03T20:54:22.492Z,1.92
2022-08-03T20:56:50.006Z,1.80
2022-08-03T20:59:16.757Z,1.80
2022-08-03T21:01:45.948Z,1.63
2022-08-03T21:04:13.854Z,1.77
2022-08-03T21:06:54.242Z,1.60
2022-08-03T21:09:40.063Z,1.98
2022-08-03T21:12:12.965Z,1.90
2022-08-03T21:13:08.461Z,2.40
2022-08-03T21:14:50.381Z,1.48
2022-08-03T21:17:39.147Z,1.52
2022-08-03T21:20:08.727Z,1.60
2022-08-03T21:22:37.339Z,1.40
2022-08-03T21:25:07.232Z,1.33
2022-08-03T21:27:34.812Z,1.70
2022-08-03T21:30:06.241Z,1.58
2022-08-03T21:32:33.576Z,1.73
2022-08-03T21:35:00.745Z,1.90
2022-08-03T21:37:28.527Z,1.60
2022-08-03T21:39:56.383Z,1.77
2022-08-03T21:42:23.971Z,1.80
2022-08-03T21:44:54.035Z,1.50
2022-08-03T21:47:22.424Z,1.58
2022-08-03T21:50:06.465Z,1.67
2022-08-03T21:52:46.642Z,1.38
2022-08-03T21:55:20.928Z,1.88
2022-08-03T21:57:51.860Z,1.70
2022-08-03T22:00:20.655Z,1.70
2022-08-03T22:02:55.757Z,2.10
2022-08-03T22:05:42.999Z,1.90
2022-08-03T22:08:13.228Z,2.00
2022-08-03T22:10:40.442Z,2.55
2022-08-03T22:13:07.168Z,2.10
2022-08-03T22:15:33.918Z,2.05
2022-08-03T22:18:03.562Z,2.00
2022-08-03T22:20:30.615Z,2.40
2022-08-03T22:23:01.332Z,1.92
2022-08-03T22:25:32.532Z,1.77
2022-08-03T22:28:09.712Z,1.77
2022-08-03T22:30:36.999Z,1.67
2022-08-03T22:33:05.512Z,1.90
2022-08-03T22:35:49.403Z,1.60
2022-08-03T22:38:18.027Z,1.90
2022-08-03T22:40:45.135Z,1.85
2022-08-03T22:43:11.962Z,1.95
2022-08-03T22:46:07.190Z,1.60
2022-08-03T22:48:26.266Z,1.85
2022-08-03T22:50:53.078Z,1.77
2022-08-03T22:53:21.496Z,1.90
2022-08-03T22:55:48.861Z,2.10
2022-08-03T22:58:15.996Z,2.15
2022-08-03T23:00:46.235Z,2.15
2022-08-03T23:03:59.288Z,2.03
2022-08-03T23:06:19.894Z,2.30
2022-08-03T23:08:47.711Z,2.25
2022-08-03T23:11:15.902Z,2.10
2022-08-03T23:13:43.042Z,1.95
2022-08-03T23:16:09.959Z,2.28
2022-08-03T23:18:39.816Z,2.05
2022-08-03T23:21:11.293Z,1.70
2022-08-03T23:23:44.558Z,2.03
2022-08-03T23:26:13.270Z,2.00
2022-08-03T23:28:40.059Z,2.10
2022-08-03T23:31:07.819Z,2.15
2022-08-03T23:33:35.019Z,2.10
2022-08-03T23:36:27.585Z,2.53
2022-08-03T23:38:53.527Z,2.53
2022-08-03T23:41:20.311Z,2.33
2022-08-03T23:43:53.586Z,2.13
2022-08-03T23:46:26.511Z,2.50
2022-08-03T23:48:56.440Z,2.00
2022-08-03T23:51:50.098Z,2.03
2022-08-03T23:54:41.550Z,1.70
2022-08-03T23:57:15.510Z,2.00
2022-08-03T23:59:44.184Z,2.13
